Time;durP1;ratioP1;P1;durP2;ratioP2;P2;SDS_P1;SDS_P2;PMS_P1;PMS_P2;Temp;Humidity;BMP_temperature;BMP_pressure;BME280_temperature;BME280_humidity;BME280_pressure;Samples;Min_cycle;Max_cycle;Signal;HPM_P1;HPM_P2
2021/06/18 00:00:09;;;;;;;7.55;4.35;;;24.00;53.80;;;;;;6276344;22;20006;-90
2021/06/18 00:02:34;;;;;;;8.93;4.80;;;24.00;53.90;;;;;;6276028;22;20047;-89
2021/06/18 00:05:00;;;;;;;7.82;5.25;;;24.00;53.90;;;;;;6275986;22;20027;-90
2021/06/18 00:07:26;;;;;;;5.88;5.20;;;23.90;54.10;;;;;;6276209;22;20018;-89
2021/06/18 00:09:51;;;;;;;7.72;5.13;;;23.90;54.20;;;;;;6276668;22;20034;-89
2021/06/18 00:12:17;;;;;;;6.43;4.70;;;23.90;54.00;;;;;;6277416;22;20006;-90
2021/06/18 00:14:43;;;;;;;9.05;5.05;;;23.90;54.00;;;;;;6277724;22;20027;-89
2021/06/18 00:17:09;;;;;;;6.57;5.05;;;23.70;54.30;;;;;;6277278;22;20000;-90
2021/06/18 00:19:35;;;;;;;5.75;4.85;;;23.70;54.60;;;;;;6276643;22;20004;-90
2021/06/18 00:22:01;;;;;;;13.57;4.90;;;23.70;54.60;;;;;;6277675;22;19997;-89
2021/06/18 00:24:27;;;;;;;7.38;5.05;;;23.80;54.40;;;;;;6276247;22;20431;-88
2021/06/18 00:26:53;;;;;;;9.13;5.53;;;23.70;54.50;;;;;;6280657;22;20011;-89
2021/06/18 00:29:18;;;;;;;12.32;4.90;;;23.70;54.70;;;;;;6280971;22;20579;-90
2021/06/18 00:31:44;;;;;;;10.13;5.50;;;23.60;54.90;;;;;;6281184;22;20008;-89
2021/06/18 00:34:10;;;;;;;6.95;4.95;;;23.50;55.20;;;;;;6281002;22;20000;-89
2021/06/18 00:36:35;;;;;;;9.02;5.50;;;23.50;55.40;;;;;;6308703;22;20015;-90
2021/06/18 00:39:02;;;;;;;7.40;5.10;;;23.50;55.60;;;;;;6308164;22;20021;-90
2021/06/18 00:41:27;;;;;;;7.78;5.38;;;23.40;55.70;;;;;;6308729;22;20006;-90
2021/06/18 00:43:54;;;;;;;6.88;5.30;;;23.30;55.60;;;;;;6308563;22;20031;-90
2021/06/18 00:46:20;;;;;;;6.90;5.40;;;23.30;55.60;;;;;;6308143;22;20030;-88
2021/06/18 00:48:47;;;;;;;6.07;4.90;;;23.30;55.70;;;;;;6281371;22;20338;-90
2021/06/18 00:51:13;;;;;;;8.73;5.28;;;23.30;56.00;;;;;;6308374;22;20580;-89
2021/06/18 00:53:40;;;;;;;6.03;5.15;;;23.20;56.20;;;;;;6280647;22;20003;-89
2021/06/18 00:56:06;;;;;;;7.60;4.28;;;23.20;56.10;;;;;;6280838;22;20004;-90
2021/06/18 00:58:32;;;;;;;9.93;6.22;;;23.20;56.00;;;;;;6308408;22;20019;-89
2021/06/18 01:00:58;;;;;;;5.65;4.80;;;23.10;56.00;;;;;;6281341;22;19995;-90
2021/06/18 01:03:24;;;;;;;9.82;5.10;;;23.10;56.40;;;;;;6280757;22;20080;-89
2021/06/18 01:05:52;;;;;;;6.25;4.90;;;23.10;56.50;;;;;;6280404;22;20007;-89
2021/06/18 01:08:41;;;;;;;8.13;5.30;;;23.10;56.50;;;;;;6307835;22;20053;-90
2021/06/18 01:11:10;;;;;;;8.32;5.30;;;23.00;56.90;;;;;;6308236;22;20006;-89
2021/06/18 01:13:39;;;;;;;8.90;4.88;;;23.00;56.70;;;;;;6281260;22;19999;-90
2021/06/18 01:16:13;;;;;;;10.57;5.90;;;22.90;56.80;;;;;;6307680;22;20006;-90
2021/06/18 01:18:45;;;;;;;6.22;5.63;;;23.00;56.90;;;;;;6280969;22;19999;-90
2021/06/18 01:21:32;;;;;;;9.77;5.43;;;23.10;56.80;;;;;;6281201;22;19999;-89
2021/06/18 01:24:13;;;;;;;7.90;5.63;;;23.00;56.60;;;;;;6279906;22;20056;-89
2021/06/18 01:27:10;;;;;;;7.97;5.82;;;23.00;56.70;;;;;;6274814;22;20022;-90
2021/06/18 01:29:39;;;;;;;6.30;5.13;;;22.90;57.00;;;;;;6275522;22;20003;-90
2021/06/18 01:32:09;;;;;;;7.05;5.68;;;22.90;57.00;;;;;;6277141;22;20027;-89
2021/06/18 01:34:37;;;;;;;6.53;5.32;;;22.90;57.20;;;;;;6276376;22;20022;-89
2021/06/18 01:37:11;;;;;;;10.15;5.80;;;22.80;57.40;;;;;;6275771;22;19999;-90
2021/06/18 01:39:38;;;;;;;6.53;5.25;;;22.70;57.50;;;;;;6275703;22;20003;-88
2021/06/18 01:42:06;;;;;;;11.15;5.75;;;22.70;57.60;;;;;;6276958;22;20015;-89
2021/06/18 01:44:34;;;;;;;6.88;5.63;;;22.70;57.60;;;;;;6275301;22;20030;-89
2021/06/18 01:47:01;;;;;;;10.40;5.82;;;22.60;57.70;;;;;;6276741;22;20426;-90
2021/06/18 01:49:28;;;;;;;7.88;6.10;;;22.70;57.80;;;;;;6277009;22;20003;-89
2021/06/18 01:51:56;;;;;;;9.65;6.60;;;22.70;57.80;;;;;;6275693;22;20042;-89
2021/06/18 01:54:27;;;;;;;11.75;5.72;;;22.70;57.80;;;;;;6275420;22;20034;-90
2021/06/18 01:56:55;;;;;;;6.80;5.68;;;22.60;57.70;;;;;;6275321;22;20061;-89
2021/06/18 01:59:22;;;;;;;7.15;5.65;;;22.60;58.00;;;;;;6275572;22;20442;-90
2021/06/18 02:01:50;;;;;;;7.57;6.13;;;22.60;57.90;;;;;;6276354;22;20067;-89
2021/06/18 02:04:16;;;;;;;9.02;5.57;;;22.60;58.10;;;;;;6275984;22;20000;-89
2021/06/18 02:06:43;;;;;;;6.43;4.93;;;22.60;58.00;;;;;;6274772;22;20007;-90
2021/06/18 02:09:12;;;;;;;6.75;5.60;;;22.50;57.80;;;;;;6275433;22;20011;-89
2021/06/18 02:11:39;;;;;;;12.27;6.30;;;22.60;57.80;;;;;;6276675;22;20000;-90
2021/06/18 02:14:15;;;;;;;11.02;4.88;;;22.60;57.60;;;;;;6274987;22;20004;-89
2021/06/18 02:16:43;;;;;;;5.93;4.50;;;22.70;57.40;;;;;;6276755;22;20000;-89
2021/06/18 02:19:13;;;;;;;9.25;6.07;;;22.80;56.70;;;;;;6276765;22;19995;-89
2021/06/18 02:21:40;;;;;;;7.43;5.65;;;22.70;56.90;;;;;;6274867;22;20462;-90
2021/06/18 02:24:07;;;;;;;9.23;5.38;;;22.70;57.10;;;;;;6274561;22;20010;-89
2021/06/18 02:26:33;;;;;;;6.13;4.63;;;22.70;57.00;;;;;;6274720;22;20019;-90
2021/06/18 02:28:59;;;;;;;6.68;4.88;;;22.80;56.90;;;;;;6274934;22;20007;-90
2021/06/18 02:31:28;;;;;;;7.93;6.05;;;22.80;56.70;;;;;;6274582;22;20335;-82
2021/06/18 02:33:54;;;;;;;8.20;5.55;;;22.70;56.80;;;;;;6273867;22;20008;-82
2021/06/18 02:36:20;;;;;;;6.70;5.72;;;22.70;56.90;;;;;;6275680;22;20046;-82
2021/06/18 02:38:48;;;;;;;8.13;6.00;;;22.70;56.80;;;;;;6274895;22;20003;-82
2021/06/18 02:41:14;;;;;;;8.38;5.80;;;22.70;56.90;;;;;;6278211;22;20070;-82
2021/06/18 02:43:40;;;;;;;7.47;5.95;;;22.70;56.80;;;;;;6278155;22;20304;-82
2021/06/18 02:46:06;;;;;;;9.30;6.15;;;22.60;57.20;;;;;;6277812;22;20121;-83
2021/06/18 02:48:42;;;;;;;10.55;7.05;;;22.50;57.30;;;;;;6278077;22;20046;-82
2021/06/18 02:51:12;;;;;;;10.38;6.22;;;22.50;57.50;;;;;;6277997;22;20002;-82
2021/06/18 02:53:55;;;;;;;7.95;6.22;;;22.40;57.40;;;;;;6277541;22;20342;-82
2021/06/18 02:56:34;;;;;;;7.47;6.47;;;22.50;57.80;;;;;;6275375;22;20007;-82
2021/06/18 02:59:21;;;;;;;10.43;6.78;;;22.50;57.90;;;;;;6276397;22;20000;-82
2021/06/18 03:01:51;;;;;;;10.10;6.70;;;22.60;57.90;;;;;;6277103;22;20069;-82
2021/06/18 03:04:22;;;;;;;7.40;6.28;;;22.50;57.80;;;;;;6277655;22;20007;-82
2021/06/18 03:06:50;;;;;;;7.55;6.65;;;22.40;58.10;;;;;;6275932;22;20004;-82
2021/06/18 03:09:22;;;;;;;8.32;6.03;;;22.30;58.20;;;;;;6275855;22;20004;-82
2021/06/18 03:11:50;;;;;;;11.40;7.40;;;22.30;58.20;;;;;;6276344;22;20370;-82
2021/06/18 03:14:18;;;;;;;12.02;6.72;;;22.30;58.10;;;;;;6275367;22;20004;-82
2021/06/18 03:16:46;;;;;;;9.30;7.18;;;22.40;57.90;;;;;;6277296;22;20418;-82
2021/06/18 03:19:15;;;;;;;8.88;6.55;;;22.40;57.80;;;;;;6275785;22;20003;-82
2021/06/18 03:21:42;;;;;;;8.85;6.43;;;22.40;57.80;;;;;;6275784;22;20004;-82
2021/06/18 03:24:11;;;;;;;8.52;6.35;;;22.40;57.80;;;;;;6277102;22;20373;-82
2021/06/18 03:26:37;;;;;;;7.10;5.85;;;22.40;58.00;;;;;;6280673;22;20011;-82
2021/06/18 03:29:04;;;;;;;6.30;5.68;;;22.40;57.90;;;;;;6308186;22;20015;-82
2021/06/18 03:31:32;;;;;;;8.70;5.80;;;22.30;58.10;;;;;;6280770;22;20087;-82
2021/06/18 03:33:59;;;;;;;7.95;5.03;;;22.20;58.30;;;;;;6308018;22;20007;-82
2021/06/18 03:36:25;;;;;;;9.30;6.05;;;22.20;58.40;;;;;;6280725;22;19999;-82
2021/06/18 03:38:55;;;;;;;7.63;5.93;;;22.30;58.30;;;;;;6280852;22;20004;-82
2021/06/18 03:41:22;;;;;;;11.27;6.32;;;22.20;58.30;;;;;;6280732;22;20007;-82
2021/06/18 03:43:49;;;;;;;12.15;6.57;;;22.10;58.30;;;;;;6308382;22;20061;-82
2021/06/18 03:46:16;;;;;;;11.93;6.60;;;22.10;58.40;;;;;;6280777;22;20003;-82
2021/06/18 03:48:44;;;;;;;9.27;6.38;;;22.00;58.70;;;;;;6307974;22;20013;-82
2021/06/18 03:51:10;;;;;;;9.93;6.30;;;21.90;59.10;;;;;;6279577;22;20039;-82
2021/06/18 03:53:37;;;;;;;8.80;6.70;;;22.00;59.50;;;;;;6307445;22;20003;-82
2021/06/18 03:56:05;;;;;;;8.05;6.07;;;22.00;59.50;;;;;;6307690;22;19995;-82
2021/06/18 03:58:33;;;;;;;8.35;6.32;;;22.00;59.60;;;;;;6280335;22;19995;-82
2021/06/18 04:01:00;;;;;;;10.98;6.80;;;22.00;59.70;;;;;;6280695;22;19999;-82
2021/06/18 04:03:28;;;;;;;20.38;7.80;;;21.90;59.70;;;;;;6280416;22;20010;-82
2021/06/18 04:06:01;;;;;;;8.07;6.70;;;21.90;59.80;;;;;;6279747;22;20014;-82
2021/06/18 04:08:28;;;;;;;8.13;6.47;;;21.90;60.10;;;;;;6308127;22;20006;-82
2021/06/18 04:10:54;;;;;;;9.82;6.60;;;21.90;60.10;;;;;;6307657;22;20007;-82
2021/06/18 04:13:20;;;;;;;8.50;6.10;;;21.90;60.00;;;;;;6307827;22;20007;-82
2021/06/18 04:15:47;;;;;;;7.18;6.25;;;21.90;60.00;;;;;;6280510;22;20053;-82
2021/06/18 04:18:20;;;;;;;8.77;6.82;;;21.90;60.20;;;;;;6280406;22;20078;-82
2021/06/18 04:20:47;;;;;;;10.18;7.05;;;21.90;60.20;;;;;;6280611;22;19999;-82
2021/06/18 04:23:13;;;;;;;7.72;6.72;;;21.90;60.40;;;;;;6307425;22;20013;-82
2021/06/18 04:25:38;;;;;;;8.65;6.93;;;21.90;60.50;;;;;;6307125;22;20438;-82
2021/06/18 04:28:06;;;;;;;9.75;7.13;;;21.90;60.30;;;;;;6280571;22;20007;-82
2021/06/18 04:30:32;;;;;;;11.15;7.40;;;21.90;60.20;;;;;;6307493;22;20056;-82
2021/06/18 04:32:59;;;;;;;12.65;7.55;;;21.80;60.40;;;;;;6307282;22;20032;-82
2021/06/18 04:35:24;;;;;;;8.98;7.85;;;21.80;60.30;;;;;;6307696;22;20334;-82
2021/06/18 04:37:52;;;;;;;8.68;7.75;;;21.90;60.40;;;;;;6280283;22;19995;-82
2021/06/18 04:40:18;;;;;;;12.82;8.18;;;21.90;60.50;;;;;;6280429;22;20006;-82
2021/06/18 04:42:43;;;;;;;10.07;7.35;;;21.90;60.70;;;;;;6307100;22;20003;-82
2021/06/18 04:45:10;;;;;;;10.75;7.65;;;21.90;60.80;;;;;;6280049;22;19999;-82
2021/06/18 04:47:36;;;;;;;8.88;6.32;;;21.90;60.90;;;;;;6307753;22;20006;-82
2021/06/18 04:50:03;;;;;;;10.57;7.30;;;21.90;61.10;;;;;;6279873;22;20094;-82
2021/06/18 04:52:29;;;;;;;9.65;6.47;;;21.90;60.80;;;;;;6280283;22;20437;-82
2021/06/18 04:54:58;;;;;;;8.73;6.00;;;22.00;60.70;;;;;;6279589;22;20003;-82
2021/06/18 04:57:24;;;;;;;10.23;6.28;;;22.10;60.40;;;;;;6307531;22;19999;-82
2021/06/18 04:59:50;;;;;;;10.55;6.78;;;22.10;60.30;;;;;;6307399;22;20003;-82
2021/06/18 05:02:15;;;;;;;10.32;6.65;;;22.20;60.20;;;;;;6279932;22;20007;-82
2021/06/18 05:04:41;;;;;;;11.25;7.68;;;22.20;60.00;;;;;;6279744;22;20007;-82
2021/06/18 05:07:07;;;;;;;12.05;9.38;;;22.10;60.20;;;;;;6307737;22;20070;-82
2021/06/18 05:09:33;;;;;;;12.32;8.38;;;22.00;60.40;;;;;;6307437;22;20030;-82
2021/06/18 05:12:00;;;;;;;9.75;8.52;;;21.90;60.70;;;;;;6279927;22;20007;-81
2021/06/18 05:14:26;;;;;;;8.93;8.00;;;21.90;60.90;;;;;;6307402;22;20053;-82
2021/06/18 05:16:51;;;;;;;8.82;7.93;;;21.90;60.70;;;;;;6307487;22;20004;-82
2021/06/18 05:19:17;;;;;;;13.13;7.93;;;22.10;60.70;;;;;;6279851;22;20006;-82
2021/06/18 05:21:43;;;;;;;9.82;7.50;;;22.10;60.60;;;;;;6279923;22;20086;-83
2021/06/18 05:24:09;;;;;;;10.85;7.15;;;22.20;60.70;;;;;;6279300;22;20003;-82
2021/06/18 05:26:36;;;;;;;8.70;7.80;;;22.20;60.80;;;;;;6274067;22;20051;-82
2021/06/18 05:29:02;;;;;;;8.32;6.90;;;22.30;60.60;;;;;;6276535;22;20470;-82
2021/06/18 05:31:28;;;;;;;15.48;7.22;;;22.30;60.30;;;;;;6274622;22;20030;-83
2021/06/18 05:33:54;;;;;;;9.25;7.53;;;22.30;59.90;;;;;;6274406;22;20011;-82
2021/06/18 05:36:21;;;;;;;11.75;8.15;;;22.40;59.80;;;;;;6274216;22;20010;-82
2021/06/18 05:38:47;;;;;;;10.15;7.55;;;22.30;59.80;;;;;;6276251;22;20000;-82
2021/06/18 05:41:12;;;;;;;11.23;7.75;;;22.40;59.70;;;;;;6274541;22;20010;-82
2021/06/18 05:43:38;;;;;;;10.07;8.00;;;22.50;59.70;;;;;;6274255;22;20007;-82
2021/06/18 05:46:13;;;;;;;11.82;7.95;;;22.60;59.60;;;;;;6274660;22;20482;-82
2021/06/18 05:48:39;;;;;;;10.55;7.63;;;22.70;60.30;;;;;;6276174;22;20023;-82
2021/06/18 05:51:05;;;;;;;9.52;8.52;;;22.70;60.30;;;;;;6274885;22;20012;-82
2021/06/18 05:53:31;;;;;;;9.55;8.18;;;22.80;60.40;;;;;;6274087;22;20003;-82
2021/06/18 05:55:57;;;;;;;10.52;8.40;;;22.80;60.20;;;;;;6273999;22;20004;-82
2021/06/18 05:58:23;;;;;;;10.77;8.75;;;22.80;60.10;;;;;;6276447;22;20026;-82
2021/06/18 06:00:49;;;;;;;14.43;8.30;;;22.80;59.70;;;;;;6275475;22;19996;-82
2021/06/18 06:03:15;;;;;;;9.30;8.30;;;22.80;59.70;;;;;;6273295;22;20007;-82
2021/06/18 06:05:40;;;;;;;16.25;8.90;;;22.90;60.40;;;;;;6275805;22;20327;-82
2021/06/18 06:08:10;;;;;;;11.85;9.43;;;22.90;59.70;;;;;;6273644;22;20383;-82
2021/06/18 06:10:36;;;;;;;15.88;8.77;;;23.00;59.80;;;;;;6276272;22;20050;-82
2021/06/18 06:13:02;;;;;;;14.65;9.23;;;23.00;59.80;;;;;;6276091;22;20004;-82
2021/06/18 06:15:27;;;;;;;11.00;8.73;;;23.00;59.80;;;;;;6277820;22;20342;-82
2021/06/18 06:17:53;;;;;;;12.38;8.93;;;23.00;59.80;;;;;;6277927;22;20014;-82
2021/06/18 06:20:19;;;;;;;12.65;10.00;;;23.10;60.00;;;;;;6277438;22;20004;-82
2021/06/18 06:22:44;;;;;;;10.57;8.50;;;23.10;59.90;;;;;;6279606;22;20334;-82
2021/06/18 06:25:13;;;;;;;10.95;8.70;;;23.10;59.80;;;;;;6277888;22;20016;-82
2021/06/18 06:27:39;;;;;;;10.10;8.15;;;23.10;60.10;;;;;;6277717;22;20006;-82
2021/06/18 06:30:06;;;;;;;12.25;8.60;;;23.10;60.00;;;;;;6277330;22;20079;-82
2021/06/18 06:32:32;;;;;;;10.02;8.50;;;23.20;59.90;;;;;;6276775;22;20003;-82
2021/06/18 06:34:59;;;;;;;15.45;8.95;;;23.30;59.80;;;;;;6277004;22;20493;-82
2021/06/18 06:37:25;;;;;;;13.45;8.60;;;23.30;59.70;;;;;;6277837;22;20011;-82
2021/06/18 06:39:51;;;;;;;13.52;8.43;;;23.30;59.50;;;;;;6279372;22;20022;-82
2021/06/18 06:42:17;;;;;;;10.60;8.30;;;23.30;59.50;;;;;;6277136;22;20346;-82
2021/06/18 06:44:43;;;;;;;13.27;8.48;;;23.30;59.70;;;;;;6278756;22;20004;-82
2021/06/18 06:47:08;;;;;;;10.90;7.97;;;23.40;59.70;;;;;;6279889;22;20426;-82
2021/06/18 06:49:34;;;;;;;9.23;7.80;;;23.40;59.60;;;;;;6279584;22;20081;-82
2021/06/18 06:52:00;;;;;;;14.13;9.95;;;23.50;59.60;;;;;;6279807;22;20003;-82
2021/06/18 06:54:26;;;;;;;54.28;17.45;;;23.50;59.50;;;;;;6279788;22;20004;-79
2021/06/18 06:56:53;;;;;;;14.80;10.95;;;23.60;59.70;;;;;;6277861;22;20075;-79
2021/06/18 06:59:19;;;;;;;13.98;9.15;;;23.80;59.40;;;;;;6277092;22;20004;-79
2021/06/18 07:01:45;;;;;;;14.48;9.82;;;23.90;59.10;;;;;;6277979;22;20076;-79
2021/06/18 07:04:10;;;;;;;14.85;9.55;;;24.00;58.70;;;;;;6275433;22;20468;-79
2021/06/18 07:06:38;;;;;;;16.45;9.48;;;24.10;58.50;;;;;;6277411;22;20094;-79
2021/06/18 07:09:07;;;;;;;13.55;9.85;;;24.20;58.20;;;;;;6279130;22;20410;-79
2021/06/18 07:11:33;;;;;;;12.35;10.15;;;24.40;58.20;;;;;;6279134;22;20003;-79
2021/06/18 07:13:59;;;;;;;17.67;9.60;;;24.50;57.70;;;;;;6276407;22;20442;-79
2021/06/18 07:16:25;;;;;;;16.13;10.82;;;24.60;57.30;;;;;;6275921;22;20442;-79
2021/06/18 07:18:52;;;;;;;12.43;9.60;;;24.60;57.00;;;;;;6277570;22;20000;-79
2021/06/18 07:21:17;;;;;;;15.85;10.38;;;24.80;57.30;;;;;;6276717;22;20016;-79
2021/06/18 07:23:44;;;;;;;17.48;10.02;;;25.00;56.80;;;;;;6276560;22;20081;-79
